Time;durP1;ratioP1;P1;durP2;ratioP2;P2;SDS_P1;SDS_P2;PMS_P1;PMS_P2;Temp;Humidity;BMP_temperature;BMP_pressure;BME280_temperature;BME280_humidity;BME280_pressure;Samples;Min_cycle;Max_cycle;Signal;HPM_P1;HPM_P2
2023/08/15 00:02:14;;;;;;;9.02;6.30;;;;;;;;;;5029996;28;20037;-78
2023/08/15 00:04:59;;;;;;;10.85;6.93;;;;;;;;;;5029734;28;20050;-78
2023/08/15 00:08:05;;;;;;;11.90;6.95;;;;;;;;;;5036463;28;20050;-78
2023/08/15 00:10:50;;;;;;;13.77;6.93;;;;;;;;;;5029969;28;20041;-77
2023/08/15 00:13:37;;;;;;;13.65;6.90;;;;;;;;;;5033736;28;20049;-77
2023/08/15 00:16:24;;;;;;;9.65;6.80;;;;;;;;;;5033800;28;20037;-77
2023/08/15 00:19:09;;;;;;;11.30;6.43;;;;;;;;;;5034047;28;20057;-78
2023/08/15 00:21:55;;;;;;;8.93;5.68;;;;;;;;;;5032211;28;20425;-79
2023/08/15 00:24:41;;;;;;;8.52;5.90;;;;;;;;;;5033851;28;20417;-78
2023/08/15 00:27:26;;;;;;;8.52;5.85;;;;;;;;;;5032762;28;20501;-77
2023/08/15 00:30:12;;;;;;;12.05;7.05;;;;;;;;;;5032208;28;20045;-78
2023/08/15 00:32:57;;;;;;;8.05;6.20;;;;;;;;;;5033443;28;20037;-78
2023/08/15 00:35:44;;;;;;;10.23;6.28;;;;;;;;;;5033145;28;20037;-79
2023/08/15 00:38:29;;;;;;;9.93;6.15;;;;;;;;;;5033339;28;20033;-78
2023/08/15 00:41:15;;;;;;;8.43;6.15;;;;;;;;;;5033068;28;20054;-79
2023/08/15 00:44:01;;;;;;;9.80;5.93;;;;;;;;;;5032307;28;20049;-78
2023/08/15 00:46:49;;;;;;;9.95;5.32;;;;;;;;;;5033254;28;20400;-77
2023/08/15 00:49:34;;;;;;;8.20;5.40;;;;;;;;;;5031750;28;20053;-77
2023/08/15 00:52:21;;;;;;;14.05;5.20;;;;;;;;;;5024804;28;20037;-78
2023/08/15 00:55:09;;;;;;;7.47;5.32;;;;;;;;;;5038862;28;20041;-78
2023/08/15 00:57:55;;;;;;;5.70;4.70;;;;;;;;;;5024489;28;20050;-78
2023/08/15 01:00:41;;;;;;;6.40;4.68;;;;;;;;;;5032824;28;20053;-78
2023/08/15 01:03:28;;;;;;;9.18;5.20;;;;;;;;;;5032486;28;20037;-78
2023/08/15 01:06:14;;;;;;;5.50;4.50;;;;;;;;;;5032665;28;20034;-79
2023/08/15 01:08:59;;;;;;;9.05;4.50;;;;;;;;;;5032563;28;20042;-78
2023/08/15 01:12:27;;;;;;;9.50;4.82;;;;;;;;;;5038000;28;20041;-78
2023/08/15 01:15:20;;;;;;;13.23;5.15;;;;;;;;;;5039540;28;20045;-78
2023/08/15 01:18:28;;;;;;;7.65;5.13;;;;;;;;;;5038005;28;20053;-78
2023/08/15 01:21:18;;;;;;;8.43;4.57;;;;;;;;;;5032591;28;20045;-78
2023/08/15 01:24:05;;;;;;;10.02;4.95;;;;;;;;;;5029759;28;20038;-78
2023/08/15 01:26:50;;;;;;;8.20;5.18;;;;;;;;;;5032676;28;20041;-77
2023/08/15 01:29:36;;;;;;;10.85;4.88;;;;;;;;;;5032512;28;20057;-77
2023/08/15 01:33:04;;;;;;;10.02;5.20;;;;;;;;;;5023146;28;20049;-79
2023/08/15 01:35:58;;;;;;;7.00;5.13;;;;;;;;;;5006115;28;20046;-79
2023/08/15 01:39:00;;;;;;;9.77;5.32;;;;;;;;;;5032025;28;20045;-77
2023/08/15 01:41:47;;;;;;;9.48;5.28;;;;;;;;;;5030783;28;20041;-80
2023/08/15 01:44:35;;;;;;;10.02;5.13;;;;;;;;;;5022932;28;20049;-78
2023/08/15 01:47:20;;;;;;;33.97;22.63;;;;;;;;;;5030545;28;20412;-78
2023/08/15 01:50:06;;;;;;;39.67;26.27;;;;;;;;;;5032435;28;20057;-78
2023/08/15 01:52:51;;;;;;;24.15;12.85;;;;;;;;;;5031452;28;20041;-77
2023/08/15 01:55:37;;;;;;;14.07;8.25;;;;;;;;;;5031996;28;20045;-77
2023/08/15 01:58:22;;;;;;;8.90;5.93;;;;;;;;;;5032086;28;20038;-78
2023/08/15 02:01:08;;;;;;;8.27;5.65;;;;;;;;;;5032180;28;20053;-77
2023/08/15 02:03:54;;;;;;;11.05;6.10;;;;;;;;;;5031559;28;20045;-76
2023/08/15 02:06:39;;;;;;;11.52;5.85;;;;;;;;;;5031568;28;20038;-79
2023/08/15 02:09:25;;;;;;;10.85;5.70;;;;;;;;;;5023769;28;20041;-76
2023/08/15 02:12:11;;;;;;;9.57;5.45;;;;;;;;;;5027349;28;20053;-77
2023/08/15 02:14:56;;;;;;;16.52;6.15;;;;;;;;;;5026944;28;20041;-79
2023/08/15 02:17:42;;;;;;;9.52;6.22;;;;;;;;;;5018264;28;20045;-79
2023/08/15 02:20:28;;;;;;;8.02;5.60;;;;;;;;;;5026148;28;20041;-79
2023/08/15 02:23:14;;;;;;;10.02;6.05;;;;;;;;;;5026785;28;20424;-77
2023/08/15 02:25:59;;;;;;;9.32;5.82;;;;;;;;;;5026994;28;20037;-79
2023/08/15 02:28:45;;;;;;;7.35;5.43;;;;;;;;;;5018610;28;20424;-78
2023/08/15 02:31:30;;;;;;;9.93;5.40;;;;;;;;;;5018050;28;20053;-79
2023/08/15 02:34:17;;;;;;;8.20;5.55;;;;;;;;;;5017736;28;20038;-79
2023/08/15 02:37:03;;;;;;;10.00;5.18;;;;;;;;;;5026878;28;20042;-81
2023/08/15 02:39:48;;;;;;;11.80;5.20;;;;;;;;;;5026446;28;20037;-79
2023/08/15 02:42:34;;;;;;;7.72;5.22;;;;;;;;;;5026117;28;20484;-78
2023/08/15 02:45:19;;;;;;;8.02;5.28;;;;;;;;;;5025523;28;20057;-78
2023/08/15 02:48:05;;;;;;;9.60;4.85;;;;;;;;;;5024839;28;20041;-79
2023/08/15 02:50:51;;;;;;;5.95;5.00;;;;;;;;;;5026270;28;20042;-77
2023/08/15 02:53:36;;;;;;;7.28;5.10;;;;;;;;;;5025495;28;20049;-79
2023/08/15 02:56:22;;;;;;;10.48;4.90;;;;;;;;;;5025851;28;20045;-78
2023/08/15 02:59:07;;;;;;;7.25;5.25;;;;;;;;;;5026243;28;20061;-78
2023/08/15 03:01:53;;;;;;;7.30;5.20;;;;;;;;;;5024371;28;20057;-78
2023/08/15 03:04:38;;;;;;;8.48;5.30;;;;;;;;;;5026215;28;20037;-79
2023/08/15 03:07:24;;;;;;;11.20;5.40;;;;;;;;;;5017228;28;20061;-77
2023/08/15 03:10:10;;;;;;;9.20;5.70;;;;;;;;;;5016693;28;21647;-79
2023/08/15 03:12:55;;;;;;;6.20;5.30;;;;;;;;;;5026099;28;20049;-77
2023/08/15 03:15:41;;;;;;;7.70;5.10;;;;;;;;;;5025277;28;20046;-78
2023/08/15 03:18:26;;;;;;;9.27;5.28;;;;;;;;;;5017433;28;20037;-77
2023/08/15 03:21:13;;;;;;;10.30;5.38;;;;;;;;;;5017523;28;20046;-77
2023/08/15 03:23:59;;;;;;;8.50;5.50;;;;;;;;;;5032429;28;20362;-78
2023/08/15 03:26:44;;;;;;;10.27;5.55;;;;;;;;;;5025831;28;20049;-77
2023/08/15 03:29:30;;;;;;;6.03;5.15;;;;;;;;;;5024377;28;20041;-78
2023/08/15 03:32:15;;;;;;;14.15;6.10;;;;;;;;;;5016855;28;20045;-77
2023/08/15 03:35:00;;;;;;;11.85;5.95;;;;;;;;;;5025879;28;20064;-78
2023/08/15 03:37:45;;;;;;;10.25;5.85;;;;;;;;;;5023866;28;20053;-78
2023/08/15 03:40:31;;;;;;;10.77;5.60;;;;;;;;;;5025412;28;20045;-78
2023/08/15 03:43:16;;;;;;;7.68;5.85;;;;;;;;;;5017198;28;20400;-79
2023/08/15 03:46:03;;;;;;;8.27;5.40;;;;;;;;;;5009682;28;20042;-79
2023/08/15 03:48:48;;;;;;;11.48;5.97;;;;;;;;;;5025491;28;20045;-80
2023/08/15 03:51:33;;;;;;;8.02;5.80;;;;;;;;;;5024852;28;20049;-78
2023/08/15 03:54:19;;;;;;;9.57;5.57;;;;;;;;;;5025665;28;20041;-78
2023/08/15 03:57:04;;;;;;;12.77;5.80;;;;;;;;;;5030504;28;20053;-79
2023/08/15 03:59:50;;;;;;;16.13;6.35;;;;;;;;;;5008633;28;20049;-79
2023/08/15 04:02:37;;;;;;;9.57;6.15;;;;;;;;;;5016136;28;21139;-78
2023/08/15 04:05:24;;;;;;;10.30;6.35;;;;;;;;;;5025207;28;20481;-78
2023/08/15 04:08:09;;;;;;;10.15;5.80;;;;;;;;;;5025339;28;20041;-79
2023/08/15 04:10:54;;;;;;;8.52;6.03;;;;;;;;;;5015985;28;20492;-79
2023/08/15 04:13:39;;;;;;;9.38;6.10;;;;;;;;;;5009766;28;20057;-78
2023/08/15 04:16:25;;;;;;;11.98;6.13;;;;;;;;;;5016836;28;20041;-78
2023/08/15 04:19:11;;;;;;;13.95;6.32;;;;;;;;;;5016623;28;20049;-79
2023/08/15 04:21:57;;;;;;;7.78;6.50;;;;;;;;;;5013460;28;20037;-77
2023/08/15 04:24:42;;;;;;;10.98;5.43;;;;;;;;;;5023788;28;20041;-78
2023/08/15 04:27:27;;;;;;;7.68;5.78;;;;;;;;;;5016853;28;20428;-78
2023/08/15 04:30:14;;;;;;;13.35;6.65;;;;;;;;;;5016370;28;20065;-78
2023/08/15 04:32:59;;;;;;;13.75;6.63;;;;;;;;;;5024746;28;20065;-79
2023/08/15 04:35:45;;;;;;;10.15;6.50;;;;;;;;;;5024261;28;20536;-78
2023/08/15 04:38:30;;;;;;;9.52;6.65;;;;;;;;;;5032576;28;20053;-78
2023/08/15 04:41:17;;;;;;;9.05;6.13;;;;;;;;;;5027067;28;20037;-78
2023/08/15 04:44:03;;;;;;;11.48;6.00;;;;;;;;;;5018919;28;20049;-78
2023/08/15 04:46:48;;;;;;;12.65;5.90;;;;;;;;;;5018505;28;20050;-79
2023/08/15 04:49:33;;;;;;;9.48;5.50;;;;;;;;;;5027796;28;20037;-77
2023/08/15 04:52:19;;;;;;;8.60;5.53;;;;;;;;;;5019497;28;20045;-78
2023/08/15 04:55:05;;;;;;;9.18;5.90;;;;;;;;;;5027610;28;20053;-77
2023/08/15 04:57:49;;;;;;;7.75;5.78;;;;;;;;;;5027047;28;20392;-77
2023/08/15 05:00:35;;;;;;;8.80;5.78;;;;;;;;;;5029696;28;20404;-77
2023/08/15 05:03:23;;;;;;;9.48;5.50;;;;;;;;;;5026157;28;20481;-78
2023/08/15 05:06:08;;;;;;;9.30;5.88;;;;;;;;;;5019663;28;20049;-78
2023/08/15 05:08:53;;;;;;;7.90;5.28;;;;;;;;;;5019081;28;20041;-78
2023/08/15 05:11:38;;;;;;;9.50;5.50;;;;;;;;;;5019114;28;20492;-77
2023/08/15 05:14:24;;;;;;;10.18;5.10;;;;;;;;;;5026389;28;20072;-78
2023/08/15 05:17:10;;;;;;;11.60;5.15;;;;;;;;;;5019942;28;20061;-78
2023/08/15 05:19:55;;;;;;;17.05;6.70;;;;;;;;;;5019874;28;20472;-77
2023/08/15 05:22:40;;;;;;;8.85;6.18;;;;;;;;;;5026204;28;20045;-77
2023/08/15 05:25:25;;;;;;;14.05;6.20;;;;;;;;;;5018759;28;20349;-77
2023/08/15 05:28:12;;;;;;;13.20;5.90;;;;;;;;;;5026012;28;20049;-77
2023/08/15 05:30:57;;;;;;;12.35;6.03;;;;;;;;;;5019164;28;20072;-79
2023/08/15 05:33:43;;;;;;;11.15;5.88;;;;;;;;;;5027570;28;20053;-79
2023/08/15 05:36:28;;;;;;;15.32;6.05;;;;;;;;;;5019043;28;20049;-76
2023/08/15 05:39:14;;;;;;;12.30;5.68;;;;;;;;;;5027531;28;20412;-77
2023/08/15 05:42:00;;;;;;;8.80;5.05;;;;;;;;;;5026252;28;20037;-78
2023/08/15 05:44:46;;;;;;;12.82;5.75;;;;;;;;;;5026967;28;20469;-78
2023/08/15 05:47:31;;;;;;;9.35;5.70;;;;;;;;;;5027239;28;20033;-78
2023/08/15 05:50:16;;;;;;;14.88;6.43;;;;;;;;;;5026152;28;20053;-78
2023/08/15 05:53:02;;;;;;;9.52;5.55;;;;;;;;;;5026764;28;20751;-78
2023/08/15 05:55:48;;;;;;;7.75;5.70;;;;;;;;;;5026678;28;20037;-77
2023/08/15 05:58:33;;;;;;;8.13;5.25;;;;;;;;;;5026608;28;20037;-78
2023/08/15 06:01:21;;;;;;;10.18;5.32;;;;;;;;;;5025840;28;20046;-77
2023/08/15 06:04:06;;;;;;;12.23;5.18;;;;;;;;;;5030595;28;20037;-77
2023/08/15 06:06:52;;;;;;;9.93;5.45;;;;;;;;;;5038538;28;20041;-76
2023/08/15 06:09:38;;;;;;;9.77;5.57;;;;;;;;;;5031323;28;20045;-77
2023/08/15 06:12:24;;;;;;;11.52;5.05;;;;;;;;;;5031578;28;20041;-76
2023/08/15 06:15:10;;;;;;;14.77;5.75;;;;;;;;;;5020291;28;20481;-77
2023/08/15 06:17:55;;;;;;;9.43;5.60;;;;;;;;;;5026875;28;20045;-77
2023/08/15 06:20:41;;;;;;;12.00;5.75;;;;;;;;;;5027027;28;20081;-78
2023/08/15 06:23:26;;;;;;;13.63;5.65;;;;;;;;;;5026892;28;20045;-77
2023/08/15 06:26:12;;;;;;;14.30;6.05;;;;;;;;;;5025523;28;20045;-77
2023/08/15 06:28:58;;;;;;;18.75;5.85;;;;;;;;;;5023835;28;20041;-76
2023/08/15 06:31:43;;;;;;;9.77;6.00;;;;;;;;;;5025221;28;20057;-78
2023/08/15 06:34:29;;;;;;;13.93;5.32;;;;;;;;;;5025691;28;20041;-78
2023/08/15 06:37:14;;;;;;;10.80;5.93;;;;;;;;;;5025349;28;20038;-77
2023/08/15 06:40:00;;;;;;;10.60;5.32;;;;;;;;;;5025280;28;20049;-78
2023/08/15 06:42:46;;;;;;;9.55;5.80;;;;;;;;;;5025518;28;20481;-77
2023/08/15 06:45:32;;;;;;;11.60;5.25;;;;;;;;;;5025472;28;20045;-77
2023/08/15 06:48:16;;;;;;;22.10;6.18;;;;;;;;;;5025062;28;20053;-77
2023/08/15 06:51:03;;;;;;;8.40;5.13;;;;;;;;;;5024889;28;20049;-77
2023/08/15 06:53:50;;;;;;;10.82;5.18;;;;;;;;;;5024262;28;20038;-76
2023/08/15 06:56:34;;;;;;;8.50;5.20;;;;;;;;;;5025061;28;20438;-78
2023/08/15 06:59:23;;;;;;;8.77;5.45;;;;;;;;;;5025061;28;20038;-76
2023/08/15 07:02:08;;;;;;;14.20;5.40;;;;;;;;;;5024967;28;20168;-77
2023/08/15 07:05:43;;;;;;;11.70;6.43;;;;;;;;;;5024731;28;20042;-78
2023/08/15 07:08:28;;;;;;;13.02;5.60;;;;;;;;;;5034113;28;20045;-78
2023/08/15 07:11:13;;;;;;;12.60;5.55;;;;;;;;;;5028761;28;20041;-78
2023/08/15 07:13:59;;;;;;;7.43;5.80;;;;;;;;;;5027708;28;20041;-78
2023/08/15 07:16:46;;;;;;;15.70;5.85;;;;;;;;;;5024446;28;21423;-77
2023/08/15 07:19:32;;;;;;;8.68;4.95;;;;;;;;;;5024491;28;20033;-77
2023/08/15 07:22:18;;;;;;;9.38;4.97;;;;;;;;;;5022564;28;20041;-79
2023/08/15 07:25:05;;;;;;;11.23;4.70;;;;;;;;;;5024817;28;20054;-78
2023/08/15 07:27:50;;;;;;;10.88;5.22;;;;;;;;;;5024522;28;20484;-80
2023/08/15 07:30:36;;;;;;;10.77;5.25;;;;;;;;;;5024899;28;20053;-77
2023/08/15 07:33:22;;;;;;;9.27;4.85;;;;;;;;;;5011814;28;20480;-82
2023/08/15 07:36:07;;;;;;;10.88;5.60;;;;;;;;;;5024399;28;20045;-76
2023/08/15 07:38:53;;;;;;;9.25;4.97;;;;;;;;;;5022390;28;20049;-76
2023/08/15 07:41:41;;;;;;;11.20;5.40;;;;;;;;;;5021498;28;20053;-77
2023/08/15 07:44:27;;;;;;;11.20;5.22;;;;;;;;;;5023771;28;20064;-75
2023/08/15 07:47:13;;;;;;;16.52;5.15;;;;;;;;;;5024142;28;20045;-80
2023/08/15 07:50:16;;;;;;;11.38;5.47;;;;;;;;;;5022815;28;20045;-77
2023/08/15 07:53:01;;;;;;;13.77;6.05;;;;;;;;;;5024515;28;20045;-78
2023/08/15 07:55:46;;;;;;;12.65;5.38;;;;;;;;;;5022974;28;20071;-77
2023/08/15 07:58:33;;;;;;;14.95;5.20;;;;;;;;;;5024052;28;20112;-77
2023/08/15 08:01:18;;;;;;;10.60;5.13;;;;;;;;;;5023519;28;20103;-77
2023/08/15 08:04:03;;;;;;;11.02;5.18;;;;;;;;;;5024463;28;20037;-77
2023/08/15 08:06:48;;;;;;;10.55;5.32;;;;;;;;;;5024743;28;20045;-79
2023/08/15 08:09:34;;;;;;;10.00;4.47;;;;;;;;;;5024608;28;20046;-78
2023/08/15 08:12:22;;;;;;;7.65;4.30;;;;;;;;;;5024104;28;20042;-79
2023/08/15 08:15:08;;;;;;;8.02;4.82;;;;;;;;;;5016105;28;20053;-78
2023/08/15 08:17:54;;;;;;;10.20;3.72;;;;;;;;;;5024327;28;20053;-79
2023/08/15 08:20:39;;;;;;;5.85;4.00;;;;;;;;;;5025400;28;20492;-80
2023/08/15 08:23:25;;;;;;;8.77;4.93;;;;;;;;;;5016812;28;20412;-77
2023/08/15 08:26:10;;;;;;;9.23;4.30;;;;;;;;;;5025682;28;20057;-79
2023/08/15 08:28:55;;;;;;;7.38;4.03;;;;;;;;;;5025485;28;20049;-79
2023/08/15 08:31:42;;;;;;;5.63;3.80;;;;;;;;;;5024819;28;20061;-78
2023/08/15 08:34:27;;;;;;;6.60;3.60;;;;;;;;;;5028605;28;20042;-78
2023/08/15 08:37:13;;;;;;;14.02;4.05;;;;;;;;;;5028554;28;20037;-81
2023/08/15 08:39:59;;;;;;;8.07;4.10;;;;;;;;;;5027633;28;20045;-78
2023/08/15 08:42:46;;;;;;;10.90;3.80;;;;;;;;;;5027977;28;20496;-79
2023/08/15 08:45:33;;;;;;;12.32;4.00;;;;;;;;;;5020449;28;20404;-77
2023/08/15 08:48:19;;;;;;;15.35;3.72;;;;;;;;;;5027859;28;20041;-78
2023/08/15 08:51:05;;;;;;;6.47;3.75;;;;;;;;;;5027345;28;20891;-79
2023/08/15 08:53:52;;;;;;;13.05;3.53;;;;;;;;;;5028148;28;20053;-77
2023/08/15 08:56:40;;;;;;;7.75;4.25;;;;;;;;;;5019263;28;20053;-76
2023/08/15 08:59:26;;;;;;;11.65;4.20;;;;;;;;;;5027064;28;20045;-78
2023/08/15 09:02:16;;;;;;;8.15;4.22;;;;;;;;;;5027962;28;20049;-79
2023/08/15 09:05:04;;;;;;;9.32;4.00;;;;;;;;;;5027911;28;20042;-78
2023/08/15 09:07:49;;;;;;;10.07;6.90;;;;;;;;;;5028146;28;20046;-78
2023/08/15 09:10:34;;;;;;;13.65;10.05;;;;;;;;;;5028620;28;20473;-79
2023/08/15 09:13:24;;;;;;;8.82;4.13;;;;;;;;;;5028453;28;20041;-80
2023/08/15 09:16:10;;;;;;;6.57;3.40;;;;;;;;;;5027202;28;20516;-77
2023/08/15 09:18:55;;;;;;;4.40;3.28;;;;;;;;;;5027199;28;20564;-78
2023/08/15 09:21:45;;;;;;;10.57;6.15;;;;;;;;;;5027862;28;20046;-79
2023/08/15 09:24:30;;;;;;;6.55;3.65;;;;;;;;;;5019828;28;20038;-79
2023/08/15 09:27:17;;;;;;;10.65;3.70;;;;;;;;;;5012947;28;20061;-80
2023/08/15 09:30:12;;;;;;;16.90;3.72;;;;;;;;;;5028574;28;20041;-80
2023/08/15 09:33:00;;;;;;;6.05;3.60;;;;;;;;;;5028459;28;20061;-78
2023/08/15 09:35:47;;;;;;;6.28;3.10;;;;;;;;;;5028250;28;20041;-79
2023/08/15 09:38:32;;;;;;;9.38;4.07;;;;;;;;;;5020038;28;20762;-79
2023/08/15 09:41:23;;;;;;;7.00;4.60;;;;;;;;;;5027957;28;20041;-79
2023/08/15 09:44:09;;;;;;;5.88;3.70;;;;;;;;;;5027298;28;20045;-78
2023/08/15 09:46:55;;;;;;;4.72;3.33;;;;;;;;;;5027609;28;20037;-80
2023/08/15 09:49:41;;;;;;;15.93;4.28;;;;;;;;;;5012554;28;20053;-77
2023/08/15 09:52:28;;;;;;;8.20;3.38;;;;;;;;;;5027960;28;20464;-80
2023/08/15 09:55:15;;;;;;;6.57;3.50;;;;;;;;;;5027118;28;20045;-82
2023/08/15 09:58:00;;;;;;;5.05;3.22;;;;;;;;;;5019200;28;20472;-77
2023/08/15 10:00:51;;;;;;;7.93;3.35;;;;;;;;;;5026006;28;20058;-76
2023/08/15 10:03:38;;;;;;;4.93;3.10;;;;;;;;;;5027412;28;20041;-83
2023/08/15 10:06:25;;;;;;;7.60;3.60;;;;;;;;;;5027667;28;20038;-79
2023/08/15 10:09:12;;;;;;;4.70;3.22;;;;;;;;;;5027160;28;20053;-78
2023/08/15 10:12:20;;;;;;;8.15;4.60;;;;;;;;;;5027005;28;20053;-79
2023/08/15 10:15:10;;;;;;;7.97;3.38;;;;;;;;;;5027239;28;20041;-80
2023/08/15 10:17:57;;;;;;;8.23;3.00;;;;;;;;;;5027523;28;20041;-79
2023/08/15 10:20:49;;;;;;;5.22;3.38;;;;;;;;;;5032860;28;20046;-79
2023/08/15 10:23:36;;;;;;;9.82;4.75;;;;;;;;;;5025901;28;20108;-79
2023/08/15 10:26:22;;;;;;;7.03;3.72;;;;;;;;;;5026394;28;20489;-80
2023/08/15 10:29:09;;;;;;;7.35;3.58;;;;;;;;;;5027314;28;20042;-81
2023/08/15 10:32:00;;;;;;;6.60;3.95;;;;;;;;;;5026620;28;20053;-78
2023/08/15 10:34:51;;;;;;;10.65;4.10;;;;;;;;;;5026832;28;20053;-78
2023/08/15 10:37:41;;;;;;;7.40;3.92;;;;;;;;;;5011168;28;20057;-78
2023/08/15 10:40:41;;;;;;;5.63;3.95;;;;;;;;;;5026659;28;20045;-75
2023/08/15 10:43:30;;;;;;;6.18;3.55;;;;;;;;;;5026839;28;20049;-77
2023/08/15 10:46:20;;;;;;;8.98;4.20;;;;;;;;;;5026900;28;20045;-77
2023/08/15 10:49:10;;;;;;;6.22;3.47;;;;;;;;;;5018040;28;20045;-79
2023/08/15 10:52:00;;;;;;;6.53;3.53;;;;;;;;;;5026874;28;20682;-80
2023/08/15 10:54:46;;;;;;;5.28;3.70;;;;;;;;;;5027156;28;20053;-81
2023/08/15 10:57:33;;;;;;;7.47;3.70;;;;;;;;;;5026085;28;20041;-80
2023/08/15 11:00:21;;;;;;;8.25;4.38;;;;;;;;;;5026847;28;20057;-78
2023/08/15 11:03:34;;;;;;;7.75;4.28;;;;;;;;;;5026533;28;20053;-77
2023/08/15 11:06:21;;;;;;;9.10;4.10;;;;;;;;;;5026444;28;20045;-79
2023/08/15 11:09:07;;;;;;;6.57;4.07;;;;;;;;;;5026511;28;20049;-79
2023/08/15 11:11:53;;;;;;;8.20;4.15;;;;;;;;;;5025112;28;20037;-78
2023/08/15 11:14:39;;;;;;;7.97;4.00;;;;;;;;;;5017221;28;20058;-77
2023/08/15 11:17:25;;;;;;;9.10;4.20;;;;;;;;;;5017786;28;20042;-79
2023/08/15 11:20:10;;;;;;;12.57;4.10;;;;;;;;;;5026006;28;20045;-76
2023/08/15 11:22:56;;;;;;;9.07;5.18;;;;;;;;;;5025191;28;20046;-79
2023/08/15 11:25:42;;;;;;;9.43;4.72;;;;;;;;;;5025712;28;20041;-80
2023/08/15 11:28:28;;;;;;;7.47;4.32;;;;;;;;;;5026314;28;20060;-78
2023/08/15 11:31:15;;;;;;;8.48;5.05;;;;;;;;;;5006053;28;20223;-80
2023/08/15 11:34:01;;;;;;;7.85;4.82;;;;;;;;;;5025574;28;20071;-78
2023/08/15 11:36:47;;;;;;;14.60;6.10;;;;;;;;;;5024974;28;20030;-78
2023/08/15 11:39:33;;;;;;;10.82;5.43;;;;;;;;;;5024624;28;20038;-78
2023/08/15 11:42:20;;;;;;;14.27;7.07;;;;;;;;;;5017597;28;20045;-79
2023/08/15 11:45:32;;;;;;;14.77;7.38;;;;;;;;;;5027914;28;20046;-80
2023/08/15 11:48:19;;;;;;;16.08;8.02;;;;;;;;;;5028847;28;20034;-80
2023/08/15 11:51:05;;;;;;;18.00;8.85;;;;;;;;;;5022616;28;20045;-79
2023/08/15 11:53:52;;;;;;;10.98;5.65;;;;;;;;;;5028635;28;20045;-80
2023/08/15 11:56:52;;;;;;;8.88;4.95;;;;;;;;;;5029514;28;20029;-78
2023/08/15 11:59:38;;;;;;;9.20;5.13;;;;;;;;;;5029743;28;20401;-78
2023/08/15 12:02:24;;;;;;;11.90;6.50;;;;;;;;;;5029622;28;20057;-78
2023/08/15 12:05:17;;;;;;;9.77;5.32;;;;;;;;;;5021376;28;20401;-80
2023/08/15 12:08:03;;;;;;;9.20;6.38;;;;;;;;;;5031482;28;20041;-79
2023/08/15 12:10:52;;;;;;;11.38;8.25;;;;;;;;;;5034064;28;20037;-77
2023/08/15 12:13:39;;;;;;;8.05;5.65;;;;;;;;;;5034050;28;20049;-78
2023/08/15 12:16:26;;;;;;;7.43;4.78;;;;;;;;;;5038778;28;20045;-80
2023/08/15 12:19:13;;;;;;;27.40;18.63;;;;;;;;;;5033093;28;20045;-79
2023/08/15 12:22:00;;;;;;;20.52;11.00;;;;;;;;;;5031579;28;20045;-77
2023/08/15 12:24:45;;;;;;;8.60;5.13;;;;;;;;;;5033656;28;20045;-77
2023/08/15 12:27:31;;;;;;;11.23;5.28;;;;;;;;;;5032586;28;20041;-79
2023/08/15 12:30:19;;;;;;;13.27;9.60;;;;;;;;;;5033520;28;20041;-77
2023/08/15 12:33:24;;;;;;;15.25;8.98;;;;;;;;;;5033125;28;20045;-78
2023/08/15 12:36:30;;;;;;;10.85;6.28;;;;;;;;;;5033244;28;20042;-78
2023/08/15 12:39:16;;;;;;;7.75;5.88;;;;;;;;;;5032534;28;20033;-76
2023/08/15 12:42:03;;;;;;;16.25;6.15;;;;;;;;;;5033688;28;20038;-79
2023/08/15 12:44:50;;;;;;;9.13;6.40;;;;;;;;;;5033243;28;21691;-77
2023/08/15 12:47:36;;;;;;;10.60;6.90;;;;;;;;;;5032350;28;20033;-78
2023/08/15 12:50:22;;;;;;;11.57;6.97;;;;;;;;;;5033010;28;20033;-78
2023/08/15 12:53:09;;;;;;;12.10;7.38;;;;;;;;;;5033060;28;20037;-78
2023/08/15 12:55:54;;;;;;;13.65;7.07;;;;;;;;;;5032522;28;20605;-77
2023/08/15 12:58:40;;;;;;;11.00;6.85;;;;;;;;;;5033002;28;20049;-80
2023/08/15 13:01:27;;;;;;;10.45;7.85;;;;;;;;;;5032332;28;20057;-77
2023/08/15 13:04:13;;;;;;;14.75;7.15;;;;;;;;;;5016876;28;20041;-78
2023/08/15 13:06:58;;;;;;;14.85;7.32;;;;;;;;;;5038547;28;20053;-77
2023/08/15 13:09:44;;;;;;;12.68;7.35;;;;;;;;;;5033164;28;20053;-77
2023/08/15 13:12:29;;;;;;;8.77;6.60;;;;;;;;;;5031888;28;20046;-78
2023/08/15 13:15:16;;;;;;;13.32;7.35;;;;;;;;;;5032994;28;20042;-79
2023/08/15 13:18:22;;;;;;;9.57;7.05;;;;;;;;;;5031466;28;20049;-81
2023/08/15 13:21:08;;;;;;;10.63;7.90;;;;;;;;;;5032630;28;20416;-78
2023/08/15 13:23:54;;;;;;;15.55;8.50;;;;;;;;;;5031941;28;20041;-76
2023/08/15 13:26:40;;;;;;;14.63;8.27;;;;;;;;;;5032124;28;20057;-78
2023/08/15 13:29:27;;;;;;;12.48;6.90;;;;;;;;;;5032841;28;20038;-77
2023/08/15 13:32:12;;;;;;;14.65;8.70;;;;;;;;;;5031165;28;20053;-78
2023/08/15 13:34:58;;;;;;;14.98;9.13;;;;;;;;;;5032481;28;20037;-78
2023/08/15 13:37:43;;;;;;;16.27;8.20;;;;;;;;;;5024165;28;20046;-78
2023/08/15 13:40:29;;;;;;;13.35;7.72;;;;;;;;;;5031920;28;20037;-77
2023/08/15 13:43:15;;;;;;;11.48;8.00;;;;;;;;;;5017122;28;20050;-78
2023/08/15 13:46:06;;;;;;;10.68;7.47;;;;;;;;;;5031588;28;20038;-79
2023/08/15 13:48:52;;;;;;;12.05;7.78;;;;;;;;;;5030970;28;20046;-77
2023/08/15 13:51:37;;;;;;;10.50;7.15;;;;;;;;;;5032068;28;20046;-77
2023/08/15 13:54:23;;;;;;;10.40;6.60;;;;;;;;;;5031868;28;20042;-79
2023/08/15 13:57:09;;;;;;;8.40;5.93;;;;;;;;;;5031582;28;20038;-81
2023/08/15 13:59:56;;;;;;;14.20;5.97;;;;;;;;;;5030767;28;20038;-77
2023/08/15 14:02:42;;;;;;;11.40;6.50;;;;;;;;;;5031389;28;20038;-78
2023/08/15 14:05:27;;;;;;;12.18;6.38;;;;;;;;;;5016681;28;20046;-78
2023/08/15 14:08:13;;;;;;;7.88;5.38;;;;;;;;;;5031105;28;20041;-77
2023/08/15 14:11:00;;;;;;;9.65;6.22;;;;;;;;;;5023102;28;20045;-79
2023/08/15 14:13:46;;;;;;;10.07;6.03;;;;;;;;;;5016166;28;20489;-78
2023/08/15 14:16:51;;;;;;;9.98;6.07;;;;;;;;;;5031646;28;20496;-77
2023/08/15 14:19:36;;;;;;;9.27;6.10;;;;;;;;;;5031697;28;20485;-78
2023/08/15 14:22:22;;;;;;;15.05;10.23;;;;;;;;;;5029579;28;20041;-77
2023/08/15 14:25:08;;;;;;;10.98;6.00;;;;;;;;;;5029592;28;20041;-79
2023/08/15 14:27:54;;;;;;;8.25;5.40;;;;;;;;;;5030291;28;20037;-81
2023/08/15 14:30:41;;;;;;;9.82;5.35;;;;;;;;;;5014330;28;20045;-79
2023/08/15 14:33:27;;;;;;;7.18;5.20;;;;;;;;;;5022137;28;20049;-79
2023/08/15 14:36:14;;;;;;;7.80;4.65;;;;;;;;;;5030659;28;20037;-77
2023/08/15 14:38:59;;;;;;;33.38;17.40;;;;;;;;;;5024153;28;20042;-80
2023/08/15 14:41:45;;;;;;;21.20;11.20;;;;;;;;;;5018467;28;20049;-78
2023/08/15 14:44:32;;;;;;;12.68;5.40;;;;;;;;;;5025119;28;20045;-79
2023/08/15 14:47:26;;;;;;;13.63;5.10;;;;;;;;;;5034403;28;20452;-78
2023/08/15 14:50:12;;;;;;;;;;;;;;;;;;5034736;28;20037;-77
2023/08/15 14:52:58;;;;;;;10.70;5.50;;;;;;;;;;5033353;28;19913;-77
2023/08/15 14:55:43;;;;;;;10.38;5.05;;;;;;;;;;5034045;28;20042;-77
2023/08/15 14:58:29;;;;;;;10.48;5.03;;;;;;;;;;5034334;28;20392;-80
2023/08/15 15:01:15;;;;;;;7.70;4.75;;;;;;;;;;5021186;28;20045;-82
2023/08/15 15:04:00;;;;;;;13.45;8.02;;;;;;;;;;5024628;28;20033;-78
2023/08/15 15:06:47;;;;;;;9.55;5.40;;;;;;;;;;5034230;28;20397;-79
2023/08/15 15:09:32;;;;;;;9.05;4.78;;;;;;;;;;5033784;28;20046;-75
2023/08/15 15:12:19;;;;;;;14.27;5.03;;;;;;;;;;5026151;28;20057;-78
2023/08/15 15:15:08;;;;;;;6.82;4.47;;;;;;;;;;5034352;28;20397;-76
2023/08/15 15:17:54;;;;;;;7.32;4.22;;;;;;;;;;5032735;28;20037;-76
2023/08/15 15:20:40;;;;;;;6.85;4.65;;;;;;;;;;5033962;28;20053;-77
2023/08/15 15:23:25;;;;;;;8.55;4.72;;;;;;;;;;5021494;28;20041;-78
2023/08/15 15:26:11;;;;;;;9.65;4.78;;;;;;;;;;5033797;28;20053;-77
2023/08/15 15:28:57;;;;;;;6.05;4.43;;;;;;;;;;5025745;28;20053;-76
2023/08/15 15:31:44;;;;;;;6.97;4.70;;;;;;;;;;5030330;28;20049;-79
2023/08/15 15:34:30;;;;;;;11.20;5.45;;;;;;;;;;5032768;28;20041;-79
2023/08/15 15:37:15;;;;;;;10.43;5.15;;;;;;;;;;5033558;28;20049;-78
2023/08/15 15:40:03;;;;;;;9.48;5.28;;;;;;;;;;5008042;28;20046;-76
2023/08/15 15:42:49;;;;;;;9.40;4.90;;;;;;;;;;5028217;28;20488;-77
2023/08/15 15:45:36;;;;;;;12.10;5.95;;;;;;;;;;5005011;28;20050;-80
2023/08/15 15:48:20;;;;;;;10.07;5.43;;;;;;;;;;5012524;28;20046;-80
2023/08/15 15:51:06;;;;;;;6.85;4.82;;;;;;;;;;5012806;28;20042;-76
2023/08/15 15:53:52;;;;;;;8.27;5.00;;;;;;;;;;5013337;28;20054;-80
2023/08/15 15:56:39;;;;;;;10.82;5.30;;;;;;;;;;5013130;28;20038;-79
2023/08/15 15:59:25;;;;;;;10.23;5.38;;;;;;;;;;5013334;28;20042;-80
2023/08/15 16:02:11;;;;;;;8.20;4.50;;;;;;;;;;5014072;28;20046;-83
2023/08/15 16:04:58;;;;;;;8.90;4.30;;;;;;;;;;4999407;28;20046;-78
2023/08/15 16:07:43;;;;;;;6.47;4.72;;;;;;;;;;5013183;28;20046;-80
2023/08/15 16:10:29;;;;;;;7.75;4.63;;;;;;;;;;5013702;28;20050;-81
2023/08/15 16:13:15;;;;;;;11.68;5.10;;;;;;;;;;5013387;28;20053;-78
2023/08/15 16:16:01;;;;;;;6.75;4.68;;;;;;;;;;5013513;28;20046;-83
2023/08/15 16:18:47;;;;;;;9.10;5.10;;;;;;;;;;5013419;28;20053;-82
2023/08/15 16:21:55;;;;;;;8.95;5.00;;;;;;;;;;5013478;28;20401;-81
2023/08/15 16:24:42;;;;;;;10.13;5.32;;;;;;;;;;5013738;28;20042;-79
2023/08/15 16:27:27;;;;;;;8.70;5.38;;;;;;;;;;5013480;28;20405;-80
2023/08/15 16:30:14;;;;;;;8.95;5.13;;;;;;;;;;4998753;28;20042;-80
2023/08/15 16:32:59;;;;;;;7.10;4.70;;;;;;;;;;5005377;28;20473;-80
2023/08/15 16:35:45;;;;;;;10.75;4.72;;;;;;;;;;5005518;28;20050;-79